sensor_id;sensor_type;location;lat;lon;timestamp;P1;durP1;ratioP1;P2;durP2;ratioP2
53281;SDS011;39167;52.794;6.892;2023-04-22T00:02:21;10.50;;;6.88;;
53281;SDS011;39167;52.794;6.892;2023-04-22T00:04:47;8.60;;;6.13;;
53281;SDS011;39167;52.794;6.892;2023-04-22T00:07:13;8.48;;;5.68;;
53281;SDS011;39167;52.794;6.892;2023-04-22T00:09:40;10.60;;;6.65;;
53281;SDS011;39167;52.794;6.892;2023-04-22T00:12:06;9.00;;;6.53;;
53281;SDS011;39167;52.794;6.892;2023-04-22T00:14:33;9.18;;;6.60;;
53281;SDS011;39167;52.794;6.892;2023-04-22T00:16:59;7.30;;;6.13;;
53281;SDS011;39167;52.794;6.892;2023-04-22T00:19:25;11.70;;;7.38;;
53281;SDS011;39167;52.794;6.892;2023-04-22T00:21:52;9.27;;;7.53;;
53281;SDS011;39167;52.794;6.892;2023-04-22T00:24:17;9.40;;;7.80;;
53281;SDS011;39167;52.794;6.892;2023-04-22T00:26:43;10.07;;;6.80;;
53281;SDS011;39167;52.794;6.892;2023-04-22T00:29:09;9.30;;;6.53;;
53281;SDS011;39167;52.794;6.892;2023-04-22T00:31:35;8.93;;;6.90;;
53281;SDS011;39167;52.794;6.892;2023-04-22T00:34:00;9.05;;;7.10;;
53281;SDS011;39167;52.794;6.892;2023-04-22T00:36:26;10.43;;;7.15;;
53281;SDS011;39167;52.794;6.892;2023-04-22T00:38:52;10.40;;;7.00;;
53281;SDS011;39167;52.794;6.892;2023-04-22T00:41:18;12.27;;;6.70;;
53281;SDS011;39167;52.794;6.892;2023-04-22T00:43:44;9.55;;;6.45;;
53281;SDS011;39167;52.794;6.892;2023-04-22T00:46:10;10.13;;;6.47;;
53281;SDS011;39167;52.794;6.892;2023-04-22T00:48:36;9.13;;;6.30;;
53281;SDS011;39167;52.794;6.892;2023-04-22T00:51:03;9.13;;;6.78;;
53281;SDS011;39167;52.794;6.892;2023-04-22T00:53:29;10.10;;;6.97;;
53281;SDS011;39167;52.794;6.892;2023-04-22T00:55:54;8.48;;;5.95;;
53281;SDS011;39167;52.794;6.892;2023-04-22T00:58:21;8.98;;;6.68;;
53281;SDS011;39167;52.794;6.892;2023-04-22T01:00:50;10.52;;;6.70;;
53281;SDS011;39167;52.794;6.892;2023-04-22T01:03:15;8.65;;;6.97;;
53281;SDS011;39167;52.794;6.892;2023-04-22T01:05:41;10.98;;;7.38;;
53281;SDS011;39167;52.794;6.892;2023-04-22T01:08:08;9.55;;;7.50;;
53281;SDS011;39167;52.794;6.892;2023-04-22T01:10:34;10.63;;;6.85;;
53281;SDS011;39167;52.794;6.892;2023-04-22T01:13:00;9.27;;;7.35;;
53281;SDS011;39167;52.794;6.892;2023-04-22T01:15:26;13.13;;;7.43;;
53281;SDS011;39167;52.794;6.892;2023-04-22T01:17:52;10.45;;;7.85;;
53281;SDS011;39167;52.794;6.892;2023-04-22T01:20:18;12.23;;;7.45;;
53281;SDS011;39167;52.794;6.892;2023-04-22T01:22:46;10.27;;;7.13;;
53281;SDS011;39167;52.794;6.892;2023-04-22T01:25:14;10.30;;;7.53;;
53281;SDS011;39167;52.794;6.892;2023-04-22T01:27:40;11.80;;;7.53;;
53281;SDS011;39167;52.794;6.892;2023-04-22T01:30:07;9.27;;;7.65;;
53281;SDS011;39167;52.794;6.892;2023-04-22T01:32:34;10.02;;;7.30;;
53281;SDS011;39167;52.794;6.892;2023-04-22T01:35:00;10.85;;;8.00;;
53281;SDS011;39167;52.794;6.892;2023-04-22T01:37:27;9.77;;;7.30;;
53281;SDS011;39167;52.794;6.892;2023-04-22T01:39:55;9.45;;;7.65;;
53281;SDS011;39167;52.794;6.892;2023-04-22T01:42:22;10.95;;;8.13;;
53281;SDS011;39167;52.794;6.892;2023-04-22T01:44:49;13.70;;;8.45;;
53281;SDS011;39167;52.794;6.892;2023-04-22T01:47:14;9.88;;;8.18;;
53281;SDS011;39167;52.794;6.892;2023-04-22T01:49:40;12.43;;;8.55;;
53281;SDS011;39167;52.794;6.892;2023-04-22T01:52:06;9.57;;;7.57;;
53281;SDS011;39167;52.794;6.892;2023-04-22T01:54:32;9.82;;;7.95;;
53281;SDS011;39167;52.794;6.892;2023-04-22T01:56:57;10.65;;;7.50;;
53281;SDS011;39167;52.794;6.892;2023-04-22T01:59:23;10.95;;;7.75;;
53281;SDS011;39167;52.794;6.892;2023-04-22T02:01:49;11.40;;;8.00;;
53281;SDS011;39167;52.794;6.892;2023-04-22T02:04:15;10.35;;;8.07;;
53281;SDS011;39167;52.794;6.892;2023-04-22T02:06:40;11.32;;;8.32;;
53281;SDS011;39167;52.794;6.892;2023-04-22T02:09:07;8.75;;;7.30;;
53281;SDS011;39167;52.794;6.892;2023-04-22T02:11:32;11.13;;;7.85;;
53281;SDS011;39167;52.794;6.892;2023-04-22T02:13:58;10.23;;;8.15;;
53281;SDS011;39167;52.794;6.892;2023-04-22T02:16:24;10.48;;;8.40;;
53281;SDS011;39167;52.794;6.892;2023-04-22T02:18:49;8.55;;;7.53;;
53281;SDS011;39167;52.794;6.892;2023-04-22T02:21:15;9.18;;;6.82;;
53281;SDS011;39167;52.794;6.892;2023-04-22T02:23:41;10.43;;;7.47;;
53281;SDS011;39167;52.794;6.892;2023-04-22T02:26:07;9.45;;;7.75;;
53281;SDS011;39167;52.794;6.892;2023-04-22T02:28:32;9.98;;;8.10;;
53281;SDS011;39167;52.794;6.892;2023-04-22T02:30:58;11.57;;;7.43;;
53281;SDS011;39167;52.794;6.892;2023-04-22T02:33:24;12.02;;;7.60;;
53281;SDS011;39167;52.794;6.892;2023-04-22T02:35:50;9.18;;;7.35;;
53281;SDS011;39167;52.794;6.892;2023-04-22T02:38:16;12.02;;;8.02;;
53281;SDS011;39167;52.794;6.892;2023-04-22T02:40:42;9.77;;;7.88;;
53281;SDS011;39167;52.794;6.892;2023-04-22T02:43:08;11.80;;;7.53;;
53281;SDS011;39167;52.794;6.892;2023-04-22T02:45:33;10.05;;;7.38;;
53281;SDS011;39167;52.794;6.892;2023-04-22T02:48:00;11.45;;;8.88;;
53281;SDS011;39167;52.794;6.892;2023-04-22T02:50:25;10.35;;;8.10;;
53281;SDS011;39167;52.794;6.892;2023-04-22T02:52:51;10.00;;;8.30;;
53281;SDS011;39167;52.794;6.892;2023-04-22T02:55:17;10.88;;;8.52;;
53281;SDS011;39167;52.794;6.892;2023-04-22T02:57:42;11.60;;;7.90;;
53281;SDS011;39167;52.794;6.892;2023-04-22T03:00:08;12.10;;;8.57;;
53281;SDS011;39167;52.794;6.892;2023-04-22T03:02:34;11.05;;;8.27;;
53281;SDS011;39167;52.794;6.892;2023-04-22T03:05:00;11.07;;;8.70;;
53281;SDS011;39167;52.794;6.892;2023-04-22T03:07:26;10.25;;;8.35;;
53281;SDS011;39167;52.794;6.892;2023-04-22T03:09:52;11.98;;;8.40;;
53281;SDS011;39167;52.794;6.892;2023-04-22T03:12:20;10.38;;;8.80;;
53281;SDS011;39167;52.794;6.892;2023-04-22T03:14:45;11.10;;;8.80;;
53281;SDS011;39167;52.794;6.892;2023-04-22T03:17:11;9.90;;;8.48;;
53281;SDS011;39167;52.794;6.892;2023-04-22T03:19:37;12.15;;;8.57;;
53281;SDS011;39167;52.794;6.892;2023-04-22T03:22:03;10.20;;;8.57;;
53281;SDS011;39167;52.794;6.892;2023-04-22T03:24:28;10.65;;;8.57;;
53281;SDS011;39167;52.794;6.892;2023-04-22T03:26:54;10.98;;;8.98;;
53281;SDS011;39167;52.794;6.892;2023-04-22T03:29:20;14.18;;;9.35;;
53281;SDS011;39167;52.794;6.892;2023-04-22T03:31:45;10.50;;;8.40;;
53281;SDS011;39167;52.794;6.892;2023-04-22T03:34:11;9.95;;;7.93;;
53281;SDS011;39167;52.794;6.892;2023-04-22T03:36:37;12.38;;;9.25;;
53281;SDS011;39167;52.794;6.892;2023-04-22T03:39:02;9.75;;;8.40;;
53281;SDS011;39167;52.794;6.892;2023-04-22T03:41:29;12.32;;;9.40;;
53281;SDS011;39167;52.794;6.892;2023-04-22T03:43:54;11.55;;;8.80;;
53281;SDS011;39167;52.794;6.892;2023-04-22T03:46:20;11.70;;;8.82;;
53281;SDS011;39167;52.794;6.892;2023-04-22T03:48:46;11.45;;;9.35;;
53281;SDS011;39167;52.794;6.892;2023-04-22T03:51:12;10.95;;;9.15;;
53281;SDS011;39167;52.794;6.892;2023-04-22T03:53:37;10.93;;;9.65;;
53281;SDS011;39167;52.794;6.892;2023-04-22T03:56:03;12.52;;;8.95;;
53281;SDS011;39167;52.794;6.892;2023-04-22T03:58:29;12.18;;;8.95;;
53281;SDS011;39167;52.794;6.892;2023-04-22T04:00:55;10.20;;;8.40;;
53281;SDS011;39167;52.794;6.892;2023-04-22T04:03:21;12.40;;;8.70;;
53281;SDS011;39167;52.794;6.892;2023-04-22T04:05:46;11.85;;;9.00;;
53281;SDS011;39167;52.794;6.892;2023-04-22T04:08:12;13.85;;;9.98;;
53281;SDS011;39167;52.794;6.892;2023-04-22T04:10:38;12.70;;;8.80;;
53281;SDS011;39167;52.794;6.892;2023-04-22T04:13:04;11.80;;;9.98;;
53281;SDS011;39167;52.794;6.892;2023-04-22T04:15:30;11.02;;;8.98;;
53281;SDS011;39167;52.794;6.892;2023-04-22T04:17:56;14.77;;;10.55;;
53281;SDS011;39167;52.794;6.892;2023-04-22T04:20:25;13.40;;;10.88;;
53281;SDS011;39167;52.794;6.892;2023-04-22T04:22:51;10.15;;;9.05;;
53281;SDS011;39167;52.794;6.892;2023-04-22T04:25:16;12.20;;;9.77;;
53281;SDS011;39167;52.794;6.892;2023-04-22T04:27:45;12.05;;;9.63;;
53281;SDS011;39167;52.794;6.892;2023-04-22T04:30:11;13.55;;;10.40;;
53281;SDS011;39167;52.794;6.892;2023-04-22T04:32:38;12.35;;;10.00;;
53281;SDS011;39167;52.794;6.892;2023-04-22T04:35:04;12.40;;;10.35;;
53281;SDS011;39167;52.794;6.892;2023-04-22T04:37:30;11.75;;;9.50;;
53281;SDS011;39167;52.794;6.892;2023-04-22T04:39:56;13.27;;;10.43;;
53281;SDS011;39167;52.794;6.892;2023-04-22T04:42:25;10.95;;;9.60;;
53281;SDS011;39167;52.794;6.892;2023-04-22T04:44:51;12.90;;;10.00;;
53281;SDS011;39167;52.794;6.892;2023-04-22T04:47:17;11.50;;;9.30;;
53281;SDS011;39167;52.794;6.892;2023-04-22T04:49:44;12.20;;;9.73;;
53281;SDS011;39167;52.794;6.892;2023-04-22T04:52:10;11.15;;;9.95;;
53281;SDS011;39167;52.794;6.892;2023-04-22T04:54:36;13.02;;;9.80;;
53281;SDS011;39167;52.794;6.892;2023-04-22T04:57:02;14.13;;;11.02;;
53281;SDS011;39167;52.794;6.892;2023-04-22T04:59:29;14.63;;;10.43;;
53281;SDS011;39167;52.794;6.892;2023-04-22T05:01:54;13.30;;;11.18;;
53281;SDS011;39167;52.794;6.892;2023-04-22T05:04:20;14.45;;;10.55;;
53281;SDS011;39167;52.794;6.892;2023-04-22T05:06:46;12.82;;;9.68;;
53281;SDS011;39167;52.794;6.892;2023-04-22T05:09:11;13.95;;;11.13;;
53281;SDS011;39167;52.794;6.892;2023-04-22T05:11:37;14.40;;;11.23;;
53281;SDS011;39167;52.794;6.892;2023-04-22T05:14:04;13.05;;;10.65;;
53281;SDS011;39167;52.794;6.892;2023-04-22T05:16:30;14.40;;;11.45;;
53281;SDS011;39167;52.794;6.892;2023-04-22T05:18:56;12.43;;;11.10;;
53281;SDS011;39167;52.794;6.892;2023-04-22T05:21:21;13.45;;;11.38;;
53281;SDS011;39167;52.794;6.892;2023-04-22T05:23:47;14.40;;;11.45;;
53281;SDS011;39167;52.794;6.892;2023-04-22T05:26:13;16.13;;;11.40;;
53281;SDS011;39167;52.794;6.892;2023-04-22T05:28:39;14.95;;;12.32;;
53281;SDS011;39167;52.794;6.892;2023-04-22T05:31:04;12.90;;;11.25;;
53281;SDS011;39167;52.794;6.892;2023-04-22T05:33:30;14.20;;;12.23;;
53281;SDS011;39167;52.794;6.892;2023-04-22T05:35:56;14.75;;;12.18;;
53281;SDS011;39167;52.794;6.892;2023-04-22T05:38:22;14.98;;;12.00;;
53281;SDS011;39167;52.794;6.892;2023-04-22T05:40:48;15.95;;;12.88;;
53281;SDS011;39167;52.794;6.892;2023-04-22T05:43:13;16.45;;;13.30;;
53281;SDS011;39167;52.794;6.892;2023-04-22T05:45:39;14.73;;;12.00;;
53281;SDS011;39167;52.794;6.892;2023-04-22T05:48:05;16.50;;;12.20;;
53281;SDS011;39167;52.794;6.892;2023-04-22T05:50:31;13.70;;;11.60;;
53281;SDS011;39167;52.794;6.892;2023-04-22T05:52:57;17.15;;;13.27;;
53281;SDS011;39167;52.794;6.892;2023-04-22T05:55:22;16.00;;;12.43;;
53281;SDS011;39167;52.794;6.892;2023-04-22T05:57:48;13.35;;;11.80;;
53281;SDS011;39167;52.794;6.892;2023-04-22T06:00:15;15.43;;;12.55;;
53281;SDS011;39167;52.794;6.892;2023-04-22T06:02:42;15.10;;;12.02;;
53281;SDS011;39167;52.794;6.892;2023-04-22T06:05:07;16.95;;;12.45;;
53281;SDS011;39167;52.794;6.892;2023-04-22T06:07:33;16.30;;;11.77;;
53281;SDS011;39167;52.794;6.892;2023-04-22T06:09:59;15.43;;;11.73;;
53281;SDS011;39167;52.794;6.892;2023-04-22T06:12:25;18.88;;;13.75;;
53281;SDS011;39167;52.794;6.892;2023-04-22T06:14:51;19.08;;;12.93;;
53281;SDS011;39167;52.794;6.892;2023-04-22T06:17:16;18.38;;;13.10;;
53281;SDS011;39167;52.794;6.892;2023-04-22T06:19:42;16.17;;;12.73;;
53281;SDS011;39167;52.794;6.892;2023-04-22T06:22:08;17.88;;;13.00;;
53281;SDS011;39167;52.794;6.892;2023-04-22T06:24:34;16.23;;;12.10;;
53281;SDS011;39167;52.794;6.892;2023-04-22T06:26:59;16.25;;;12.90;;
53281;SDS011;39167;52.794;6.892;2023-04-22T06:29:26;15.93;;;12.63;;
53281;SDS011;39167;52.794;6.892;2023-04-22T06:31:51;16.95;;;12.48;;
53281;SDS011;39167;52.794;6.892;2023-04-22T06:34:18;13.85;;;11.93;;
53281;SDS011;39167;52.794;6.892;2023-04-22T06:36:45;16.67;;;12.45;;
53281;SDS011;39167;52.794;6.892;2023-04-22T06:39:10;16.77;;;12.20;;
53281;SDS011;39167;52.794;6.892;2023-04-22T06:41:36;17.90;;;14.20;;
53281;SDS011;39167;52.794;6.892;2023-04-22T06:44:02;17.13;;;13.48;;
53281;SDS011;39167;52.794;6.892;2023-04-22T06:46:28;17.88;;;14.35;;
53281;SDS011;39167;52.794;6.892;2023-04-22T06:48:53;14.27;;;12.18;;
53281;SDS011;39167;52.794;6.892;2023-04-22T06:51:19;13.98;;;11.85;;
53281;SDS011;39167;52.794;6.892;2023-04-22T06:53:45;16.58;;;13.55;;
53281;SDS011;39167;52.794;6.892;2023-04-22T06:56:11;15.77;;;13.10;;
53281;SDS011;39167;52.794;6.892;2023-04-22T06:58:36;16.50;;;13.43;;
53281;SDS011;39167;52.794;6.892;2023-04-22T07:01:02;17.65;;;12.82;;
53281;SDS011;39167;52.794;6.892;2023-04-22T07:03:28;16.33;;;12.25;;
53281;SDS011;39167;52.794;6.892;2023-04-22T07:05:54;14.65;;;12.18;;
53281;SDS011;39167;52.794;6.892;2023-04-22T07:08:19;16.30;;;12.95;;
53281;SDS011;39167;52.794;6.892;2023-04-22T07:10:45;14.32;;;12.13;;
53281;SDS011;39167;52.794;6.892;2023-04-22T07:13:11;14.00;;;11.45;;
53281;SDS011;39167;52.794;6.892;2023-04-22T07:15:36;15.57;;;12.07;;
53281;SDS011;39167;52.794;6.892;2023-04-22T07:18:02;17.13;;;11.73;;
53281;SDS011;39167;52.794;6.892;2023-04-22T07:20:28;15.77;;;12.13;;
53281;SDS011;39167;52.794;6.892;2023-04-22T07:22:54;17.35;;;11.88;;
53281;SDS011;39167;52.794;6.892;2023-04-22T07:25:19;15.05;;;11.38;;
53281;SDS011;39167;52.794;6.892;2023-04-22T07:27:45;15.07;;;11.82;;
53281;SDS011;39167;52.794;6.892;2023-04-22T07:30:11;18.80;;;11.95;;
53281;SDS011;39167;52.794;6.892;2023-04-22T07:32:40;16.23;;;12.07;;
53281;SDS011;39167;52.794;6.892;2023-04-22T07:35:06;14.80;;;11.73;;
53281;SDS011;39167;52.794;6.892;2023-04-22T07:37:32;15.43;;;11.45;;
53281;SDS011;39167;52.794;6.892;2023-04-22T07:39:58;13.70;;;11.35;;
53281;SDS011;39167;52.794;6.892;2023-04-22T07:42:24;12.95;;;10.60;;
53281;SDS011;39167;52.794;6.892;2023-04-22T07:44:49;14.52;;;12.27;;
53281;SDS011;39167;52.794;6.892;2023-04-22T07:47:15;14.15;;;11.10;;
53281;SDS011;39167;52.794;6.892;2023-04-22T07:49:41;15.48;;;12.13;;
53281;SDS011;39167;52.794;6.892;2023-04-22T07:52:07;13.43;;;11.30;;
53281;SDS011;39167;52.794;6.892;2023-04-22T07:54:33;14.65;;;11.02;;
53281;SDS011;39167;52.794;6.892;2023-04-22T07:56:59;14.07;;;10.90;;
53281;SDS011;39167;52.794;6.892;2023-04-22T07:59:25;21.35;;;11.75;;
53281;SDS011;39167;52.794;6.892;2023-04-22T08:01:51;14.70;;;10.38;;
53281;SDS011;39167;52.794;6.892;2023-04-22T08:04:18;12.98;;;10.15;;
53281;SDS011;39167;52.794;6.892;2023-04-22T08:06:46;13.82;;;10.85;;
53281;SDS011;39167;52.794;6.892;2023-04-22T08:09:12;13.93;;;10.82;;
53281;SDS011;39167;52.794;6.892;2023-04-22T08:11:37;12.80;;;10.45;;
53281;SDS011;39167;52.794;6.892;2023-04-22T08:14:03;13.07;;;10.43;;
53281;SDS011;39167;52.794;6.892;2023-04-22T08:16:29;13.60;;;9.60;;
53281;SDS011;39167;52.794;6.892;2023-04-22T08:18:55;12.82;;;8.80;;
53281;SDS011;39167;52.794;6.892;2023-04-22T08:21:21;13.43;;;9.80;;
53281;SDS011;39167;52.794;6.892;2023-04-22T08:23:47;12.85;;;9.40;;
53281;SDS011;39167;52.794;6.892;2023-04-22T08:26:13;11.73;;;8.65;;
53281;SDS011;39167;52.794;6.892;2023-04-22T08:28:40;12.32;;;8.55;;
53281;SDS011;39167;52.794;6.892;2023-04-22T08:31:06;14.20;;;8.95;;
53281;SDS011;39167;52.794;6.892;2023-04-22T08:33:34;11.98;;;8.50;;
53281;SDS011;39167;52.794;6.892;2023-04-22T08:36:00;11.18;;;8.73;;
53281;SDS011;39167;52.794;6.892;2023-04-22T08:38:27;11.55;;;8.82;;
53281;SDS011;39167;52.794;6.892;2023-04-22T08:40:59;11.05;;;8.38;;
53281;SDS011;39167;52.794;6.892;2023-04-22T08:43:25;12.60;;;8.52;;
53281;SDS011;39167;52.794;6.892;2023-04-22T08:45:51;11.13;;;8.20;;
53281;SDS011;39167;52.794;6.892;2023-04-22T08:48:18;13.73;;;8.40;;
53281;SDS011;39167;52.794;6.892;2023-04-22T08:50:44;9.90;;;7.88;;
53281;SDS011;39167;52.794;6.892;2023-04-22T08:53:12;10.40;;;8.20;;
53281;SDS011;39167;52.794;6.892;2023-04-22T08:55:39;11.25;;;8.07;;
53281;SDS011;39167;52.794;6.892;2023-04-22T08:58:08;10.50;;;7.40;;
53281;SDS011;39167;52.794;6.892;2023-04-22T09:00:35;10.63;;;7.90;;
53281;SDS011;39167;52.794;6.892;2023-04-22T09:03:01;9.18;;;7.28;;
53281;SDS011;39167;52.794;6.892;2023-04-22T09:05:30;9.80;;;8.00;;
53281;SDS011;39167;52.794;6.892;2023-04-22T09:07:58;14.90;;;9.45;;
53281;SDS011;39167;52.794;6.892;2023-04-22T09:10:24;9.63;;;7.25;;
53281;SDS011;39167;52.794;6.892;2023-04-22T09:12:50;11.07;;;8.15;;
53281;SDS011;39167;52.794;6.892;2023-04-22T09:15:16;11.82;;;7.47;;
53281;SDS011;39167;52.794;6.892;2023-04-22T09:17:42;9.57;;;6.93;;
53281;SDS011;39167;52.794;6.892;2023-04-22T09:20:08;10.32;;;7.50;;
53281;SDS011;39167;52.794;6.892;2023-04-22T09:22:40;10.73;;;7.28;;
53281;SDS011;39167;52.794;6.892;2023-04-22T09:25:18;10.57;;;7.15;;
53281;SDS011;39167;52.794;6.892;2023-04-22T09:27:49;12.82;;;8.02;;
53281;SDS011;39167;52.794;6.892;2023-04-22T09:30:27;10.50;;;7.07;;
53281;SDS011;39167;52.794;6.892;2023-04-22T09:32:58;11.13;;;7.60;;
53281;SDS011;39167;52.794;6.892;2023-04-22T09:35:32;10.13;;;7.13;;
53281;SDS011;39167;52.794;6.892;2023-04-22T09:38:04;8.57;;;6.50;;
53281;SDS011;39167;52.794;6.892;2023-04-22T09:40:32;9.90;;;6.47;;
53281;SDS011;39167;52.794;6.892;2023-04-22T09:43:00;9.18;;;6.70;;
53281;SDS011;39167;52.794;6.892;2023-04-22T09:45:31;8.60;;;6.28;;
53281;SDS011;39167;52.794;6.892;2023-04-22T09:48:02;8.75;;;6.03;;
53281;SDS011;39167;52.794;6.892;2023-04-22T09:50:30;9.73;;;6.47;;
53281;SDS011;39167;52.794;6.892;2023-04-22T09:52:58;11.82;;;6.38;;
53281;SDS011;39167;52.794;6.892;2023-04-22T09:55:25;10.48;;;6.55;;
53281;SDS011;39167;52.794;6.892;2023-04-22T09:57:53;7.53;;;6.28;;
53281;SDS011;39167;52.794;6.892;2023-04-22T10:00:21;7.32;;;6.03;;
53281;SDS011;39167;52.794;6.892;2023-04-22T10:02:49;8.13;;;5.47;;
53281;SDS011;39167;52.794;6.892;2023-04-22T10:05:14;9.02;;;5.85;;
53281;SDS011;39167;52.794;6.892;2023-04-22T10:07:41;8.48;;;5.68;;
53281;SDS011;39167;52.794;6.892;2023-04-22T10:10:07;9.50;;;5.82;;
53281;SDS011;39167;52.794;6.892;2023-04-22T10:12:34;9.27;;;6.35;;
53281;SDS011;39167;52.794;6.892;2023-04-22T10:15:01;7.78;;;6.22;;
53281;SDS011;39167;52.794;6.892;2023-04-22T10:17:29;9.20;;;6.03;;
53281;SDS011;39167;52.794;6.892;2023-04-22T10:19:58;9.30;;;6.38;;
53281;SDS011;39167;52.794;6.892;2023-04-22T10:22:28;38.28;;;12.80;;
53281;SDS011;39167;52.794;6.892;2023-04-22T10:24:55;12.15;;;6.90;;
53281;SDS011;39167;52.794;6.892;2023-04-22T10:27:22;8.70;;;6.88;;
53281;SDS011;39167;52.794;6.892;2023-04-22T10:29:48;25.48;;;8.57;;
53281;SDS011;39167;52.794;6.892;2023-04-22T10:34:46;8.60;;;6.90;;
53281;SDS011;39167;52.794;6.892;2023-04-22T10:37:13;7.50;;;6.03;;
53281;SDS011;39167;52.794;6.892;2023-04-22T10:39:42;9.88;;;7.25;;
53281;SDS011;39167;52.794;6.892;2023-04-22T10:42:37;9.10;;;6.40;;
53281;SDS011;39167;52.794;6.892;2023-04-22T10:45:04;8.15;;;6.78;;
53281;SDS011;39167;52.794;6.892;2023-04-22T10:47:34;11.10;;;8.02;;
53281;SDS011;39167;52.794;6.892;2023-04-22T10:50:11;8.88;;;7.40;;
53281;SDS011;39167;52.794;6.892;2023-04-22T10:52:40;12.20;;;7.68;;
53281;SDS011;39167;52.794;6.892;2023-04-22T10:55:08;9.18;;;6.90;;
53281;SDS011;39167;52.794;6.892;2023-04-22T10:57:37;10.20;;;6.88;;
53281;SDS011;39167;52.794;6.892;2023-04-22T11:02:53;8.38;;;6.40;;
53281;SDS011;39167;52.794;6.892;2023-04-22T11:05:35;10.55;;;7.72;;
53281;SDS011;39167;52.794;6.892;2023-04-22T11:08:06;8.90;;;6.88;;
53281;SDS011;39167;52.794;6.892;2023-04-22T11:13:08;8.57;;;5.73;;
53281;SDS011;39167;52.794;6.892;2023-04-22T11:15:36;8.50;;;6.40;;
53281;SDS011;39167;52.794;6.892;2023-04-22T11:18:06;9.93;;;6.53;;
53281;SDS011;39167;52.794;6.892;2023-04-22T11:23:01;9.77;;;6.75;;
53281;SDS011;39167;52.794;6.892;2023-04-22T11:25:27;7.95;;;6.03;;
53281;SDS011;39167;52.794;6.892;2023-04-22T11:27:53;8.80;;;6.35;;
53281;SDS011;39167;52.794;6.892;2023-04-22T11:30:23;8.02;;;6.50;;
53281;SDS011;39167;52.794;6.892;2023-04-22T11:32:50;15.63;;;6.93;;
53281;SDS011;39167;52.794;6.892;2023-04-22T11:35:19;8.73;;;6.43;;
53281;SDS011;39167;52.794;6.892;2023-04-22T11:37:54;8.23;;;6.10;;
53281;SDS011;39167;52.794;6.892;2023-04-22T11:40:26;12.80;;;6.68;;
53281;SDS011;39167;52.794;6.892;2023-04-22T11:42:54;8.90;;;5.88;;
53281;SDS011;39167;52.794;6.892;2023-04-22T11:45:20;8.52;;;5.57;;
53281;SDS011;39167;52.794;6.892;2023-04-22T11:47:47;8.82;;;5.75;;
53281;SDS011;39167;52.794;6.892;2023-04-22T11:50:14;9.48;;;6.38;;
53281;SDS011;39167;52.794;6.892;2023-04-22T11:55:22;9.30;;;6.07;;
53281;SDS011;39167;52.794;6.892;2023-04-22T12:00:32;10.02;;;6.20;;
53281;SDS011;39167;52.794;6.892;2023-04-22T12:03:06;11.70;;;7.05;;
53281;SDS011;39167;52.794;6.892;2023-04-22T12:05:41;7.63;;;6.20;;
53281;SDS011;39167;52.794;6.892;2023-04-22T12:08:08;8.73;;;6.63;;
53281;SDS011;39167;52.794;6.892;2023-04-22T12:10:40;11.32;;;6.57;;
53281;SDS011;39167;52.794;6.892;2023-04-22T12:13:19;10.55;;;6.82;;
53281;SDS011;39167;52.794;6.892;2023-04-22T12:15:58;10.15;;;6.70;;
53281;SDS011;39167;52.794;6.892;2023-04-22T12:18:32;11.02;;;6.30;;
53281;SDS011;39167;52.794;6.892;2023-04-22T12:20:59;8.70;;;5.88;;
53281;SDS011;39167;52.794;6.892;2023-04-22T12:23:28;6.68;;;5.45;;
53281;SDS011;39167;52.794;6.892;2023-04-22T12:25:55;8.27;;;5.95;;
53281;SDS011;39167;52.794;6.892;2023-04-22T12:28:21;8.80;;;6.47;;
53281;SDS011;39167;52.794;6.892;2023-04-22T12:30:47;9.00;;;6.15;;
53281;SDS011;39167;52.794;6.892;2023-04-22T12:33:13;8.13;;;5.80;;
53281;SDS011;39167;52.794;6.892;2023-04-22T12:35:39;12.27;;;7.32;;
53281;SDS011;39167;52.794;6.892;2023-04-22T12:38:05;9.98;;;6.13;;
53281;SDS011;39167;52.794;6.892;2023-04-22T12:40:31;8.32;;;6.15;;
53281;SDS011;39167;52.794;6.892;2023-04-22T12:42:56;7.90;;;5.85;;
53281;SDS011;39167;52.794;6.892;2023-04-22T12:45:22;8.98;;;5.93;;
53281;SDS011;39167;52.794;6.892;2023-04-22T12:47:49;8.07;;;6.22;;
53281;SDS011;39167;52.794;6.892;2023-04-22T12:50:17;9.23;;;6.18;;
53281;SDS011;39167;52.794;6.892;2023-04-22T12:52:44;10.10;;;6.45;;
53281;SDS011;39167;52.794;6.892;2023-04-22T12:55:10;7.50;;;6.50;;
53281;SDS011;39167;52.794;6.892;2023-04-22T12:57:36;10.75;;;6.88;;
53281;SDS011;39167;52.794;6.892;2023-04-22T13:00:02;13.77;;;6.63;;
53281;SDS011;39167;52.794;6.892;2023-04-22T13:02:28;9.02;;;6.70;;
53281;SDS011;39167;52.794;6.892;2023-04-22T13:04:54;8.13;;;6.38;;
53281;SDS011;39167;52.794;6.892;2023-04-22T13:07:19;9.82;;;6.70;;
53281;SDS011;39167;52.794;6.892;2023-04-22T13:09:45;8.95;;;6.38;;
53281;SDS011;39167;52.794;6.892;2023-04-22T13:12:11;8.98;;;6.63;;
53281;SDS011;39167;52.794;6.892;2023-04-22T13:14:37;8.70;;;6.63;;
53281;SDS011;39167;52.794;6.892;2023-04-22T13:17:03;7.80;;;5.80;;
53281;SDS011;39167;52.794;6.892;2023-04-22T13:19:28;7.60;;;6.70;;
53281;SDS011;39167;52.794;6.892;2023-04-22T13:21:55;13.30;;;6.45;;
53281;SDS011;39167;52.794;6.892;2023-04-22T13:24:21;9.68;;;6.80;;
53281;SDS011;39167;52.794;6.892;2023-04-22T13:26:47;9.98;;;6.88;;
53281;SDS011;39167;52.794;6.892;2023-04-22T13:29:12;11.48;;;6.85;;
53281;SDS011;39167;52.794;6.892;2023-04-22T13:31:40;9.13;;;6.90;;
53281;SDS011;39167;52.794;6.892;2023-04-22T13:34:07;8.32;;;6.55;;
53281;SDS011;39167;52.794;6.892;2023-04-22T13:36:32;8.65;;;6.22;;
53281;SDS011;39167;52.794;6.892;2023-04-22T13:38:58;9.65;;;6.15;;
53281;SDS011;39167;52.794;6.892;2023-04-22T13:41:24;7.88;;;6.07;;
53281;SDS011;39167;52.794;6.892;2023-04-22T13:43:50;9.82;;;5.90;;
53281;SDS011;39167;52.794;6.892;2023-04-22T13:46:18;9.45;;;6.28;;
53281;SDS011;39167;52.794;6.892;2023-04-22T13:48:44;16.27;;;5.40;;
53281;SDS011;39167;52.794;6.892;2023-04-22T13:51:10;8.57;;;4.85;;
53281;SDS011;39167;52.794;6.892;2023-04-22T13:53:36;5.75;;;4.22;;
53281;SDS011;39167;52.794;6.892;2023-04-22T13:56:02;6.93;;;4.22;;
53281;SDS011;39167;52.794;6.892;2023-04-22T13:58:28;7.00;;;3.85;;
53281;SDS011;39167;52.794;6.892;2023-04-22T14:00:53;6.53;;;4.10;;
53281;SDS011;39167;52.794;6.892;2023-04-22T14:03:19;7.13;;;4.30;;
53281;SDS011;39167;52.794;6.892;2023-04-22T14:05:45;5.70;;;3.83;;
53281;SDS011;39167;52.794;6.892;2023-04-22T14:08:10;6.05;;;4.15;;
53281;SDS011;39167;52.794;6.892;2023-04-22T14:10:37;7.60;;;4.00;;
53281;SDS011;39167;52.794;6.892;2023-04-22T14:13:02;7.63;;;4.68;;
53281;SDS011;39167;52.794;6.892;2023-04-22T14:15:28;6.20;;;4.38;;
53281;SDS011;39167;52.794;6.892;2023-04-22T14:17:54;7.97;;;4.55;;
53281;SDS011;39167;52.794;6.892;2023-04-22T14:20:20;6.57;;;4.45;;
53281;SDS011;39167;52.794;6.892;2023-04-22T14:22:45;6.60;;;4.70;;
53281;SDS011;39167;52.794;6.892;2023-04-22T14:25:11;7.35;;;4.80;;
53281;SDS011;39167;52.794;6.892;2023-04-22T14:27:37;10.27;;;6.25;;
53281;SDS011;39167;52.794;6.892;2023-04-22T14:30:03;9.05;;;5.53;;
53281;SDS011;39167;52.794;6.892;2023-04-22T14:32:30;10.35;;;5.97;;
53281;SDS011;39167;52.794;6.892;2023-04-22T14:34:56;8.13;;;5.75;;
53281;SDS011;39167;52.794;6.892;2023-04-22T14:37:22;10.65;;;6.38;;
53281;SDS011;39167;52.794;6.892;2023-04-22T14:39:47;12.90;;;6.20;;
53281;SDS011;39167;52.794;6.892;2023-04-22T14:42:13;8.65;;;6.22;;
53281;SDS011;39167;52.794;6.892;2023-04-22T14:44:41;8.32;;;6.10;;
53281;SDS011;39167;52.794;6.892;2023-04-22T14:47:07;10.27;;;6.32;;
53281;SDS011;39167;52.794;6.892;2023-04-22T14:49:32;8.73;;;6.32;;